Hikarimaru No.17 — JD2956 — position and weather

sailwx.info

Track history (hours):
 
Tides and Currents Weather Stations Pressure Air Temp Water Temp Dewpoint Dewpoint Depression Visibility Wind Speed Wind Dir Waves Ship Positions

Hikarimaru No.17

Last reported at 2017-Sep-06 03:15 UTC. Time now 2017-Sep-22 22:26 UTC.
Position N 34°55' E 140°05'.
Warning: this ship's position is 16 days out of date.

Length 105 m; draft 6.2 m.

Type: Tanker. MMSI: 431000984.

Date/timePositionNaut miles runAvg speedWind from/ knotsBaromVisibWave heightAir tempDewpointWater temp
2017-Sep-06 03:15N 34°55' E 140°05'412.6
2017-Sep-06 02:58N 34°53' E 140°01'812.4
2017-Sep-06 02:17N 34°49' E 139°52'251 8.0
2017-Sep-04 18:47N 34°07' E 134°53'413.2
2017-Sep-04 18:29N 34°10' E 134°55'714.6
2017-Sep-04 18:00N 34°17' E 134°58'714.2
2017-Sep-04 17:29N 34°24' E 135°00'714.0
2017-Sep-04 17:00N 34°30' E 135°02'613.0
2017-Sep-04 16:30N 34°37' E 135°01'914.8
2017-Sep-04 15:52N 34°34' E 134°50'  
2017-Aug-29 16:19N 34°35' E 134°51'413.9
2017-Aug-29 16:00N 34°37' E 134°56'612.5
2017-Aug-29 15:30N 34°36' E 135°03'611.5
2017-Aug-29 15:00N 34°30' E 135°04'713.6
2017-Aug-29 14:29N 34°23' E 135°02'812.7
2017-Aug-29 13:49N 34°15' E 134°59'411.9
2017-Aug-29 13:30N 34°12' E 134°60'22310.0
2017-Aug-28 15:17N 34°55' E 139°25'512.4
2017-Aug-28 14:55N 34°58' E 139°30'512.9
2017-Aug-28 14:30N 35°01' E 139°35'612.5
2017-Aug-28 14:00N 35°05' E 139°41'612.2
2017-Aug-28 13:30N 35°10' E 139°45'713.0
2017-Aug-28 13:00N 35°16' E 139°46'612.8
2017-Aug-28 12:30N 35°22' E 139°42'611.8
2017-Aug-28 12:00N 35°27' E 139°47'612.6
2017-Aug-28 11:30N 35°30' E 139°53'811.9
2017-Aug-28 10:49N 35°32' E 140°03'0 0.0
2017-Aug-28 05:00N 35°32' E 140°03'2 1.3
2017-Aug-28 03:35N 35°33' E 140°01'0 0.0
2017-Aug-28 03:11N 35°33' E 140°01'0 0.0
2017-Aug-28 02:50N 35°33' E 140°01'0 0.0
2017-Aug-28 02:08N 35°33' E 140°01'  
Track history (hours):
 
Tides and Currents Weather Stations Pressure Air Temp Water Temp Dewpoint Dewpoint Depression Visibility Wind Speed Wind Dir Waves Ship Positions

Hikarimaru No.17

Last reported at 2017-Sep-06 03:15 UTC. Time now 2017-Sep-22 22:26 UTC.
Position N 34°55' E 140°05'.
Warning: this ship's position is 16 days out of date.

Length 105 m; draft 6.2 m.

Type: Tanker. MMSI: 431000984.

Date/timePositionNaut miles runAvg speedWind from/ knotsBaromVisibWave heightAir tempDewpointWater temp
2017-Sep-06 03:15N 34°55' E 140°05'412.6
2017-Sep-06 02:58N 34°53' E 140°01'812.4
2017-Sep-06 02:17N 34°49' E 139°52'251 8.0
2017-Sep-04 18:47N 34°07' E 134°53'413.2
2017-Sep-04 18:29N 34°10' E 134°55'714.6
2017-Sep-04 18:00N 34°17' E 134°58'714.2
2017-Sep-04 17:29N 34°24' E 135°00'714.0
2017-Sep-04 17:00N 34°30' E 135°02'613.0
2017-Sep-04 16:30N 34°37' E 135°01'914.8
2017-Sep-04 15:52N 34°34' E 134°50'  
2017-Aug-29 16:19N 34°35' E 134°51'413.9
2017-Aug-29 16:00N 34°37' E 134°56'612.5
2017-Aug-29 15:30N 34°36' E 135°03'611.5
2017-Aug-29 15:00N 34°30' E 135°04'713.6
2017-Aug-29 14:29N 34°23' E 135°02'812.7
2017-Aug-29 13:49N 34°15' E 134°59'411.9
2017-Aug-29 13:30N 34°12' E 134°60'22310.0
2017-Aug-28 15:17N 34°55' E 139°25'512.4
2017-Aug-28 14:55N 34°58' E 139°30'512.9
2017-Aug-28 14:30N 35°01' E 139°35'612.5
2017-Aug-28 14:00N 35°05' E 139°41'612.2
2017-Aug-28 13:30N 35°10' E 139°45'713.0
2017-Aug-28 13:00N 35°16' E 139°46'612.8
2017-Aug-28 12:30N 35°22' E 139°42'611.8
2017-Aug-28 12:00N 35°27' E 139°47'612.6
2017-Aug-28 11:30N 35°30' E 139°53'811.9
2017-Aug-28 10:49N 35°32' E 140°03'0 0.0
2017-Aug-28 05:00N 35°32' E 140°03'2 1.3
2017-Aug-28 03:35N 35°33' E 140°01'0 0.0
2017-Aug-28 03:11N 35°33' E 140°01'0 0.0
2017-Aug-28 02:50N 35°33' E 140°01'0 0.0
2017-Aug-28 02:08N 35°33' E 140°01'  

Dump ship's entire track history